Terminal Aerodrome Forecast
Issued by NWS

Home | Current Version | Previous Version | Text Only | Print | Product List | Glossary On
Versions: 1 2 3 4 5 6 7 8 9 10 11 12 13 14 15 16 17 18 19 20 21 22 23 24
000
FTPA31 PHFO 292300
TAFOGG
TAF
PHOG 292321Z 3000/3024 04018G26KT P6SM SCT050
     FM300600 04010KT P6SM VCSH FEW025 BKN050
     FM302100 04020G28KT P6SM VCSH FEW025 BKN050
      AMD LTD TO VIS AND WIND 3009/3016=

USA.gov is the U.S. government's official web portal to all federal, state and local government web resources and services.